Time;durP1;ratioP1;P1;durP2;ratioP2;P2;SDS_P1;SDS_P2;PMS_P1;PMS_P2;Temp;Humidity;BMP_temperature;BMP_pressure;BME280_temperature;BME280_humidity;BME280_pressure;Samples;Min_cycle;Max_cycle;Signal;HPM_P1;HPM_P2
2022/10/14 00:02:26;;;;;;;13.23;10.17;;;15.50;99.90;;;;;;5073276;28;20216;-59
2022/10/14 00:04:53;;;;;;;18.70;10.03;;;15.50;99.90;;;;;;5073168;28;20219;-58
2022/10/14 00:07:20;;;;;;;13.87;10.60;;;15.60;99.90;;;;;;5073367;28;20311;-59
2022/10/14 00:09:47;;;;;;;17.93;10.83;;;15.50;99.90;;;;;;5073248;28;20220;-58
2022/10/14 00:12:14;;;;;;;15.23;9.70;;;15.50;99.90;;;;;;5073576;28;20630;-58
2022/10/14 00:14:42;;;;;;;15.27;10.40;;;15.50;99.90;;;;;;5073120;28;20262;-58
2022/10/14 00:17:09;;;;;;;13.63;10.93;;;15.40;99.90;;;;;;5072838;28;20232;-59
2022/10/14 00:19:35;;;;;;;15.53;9.90;;;15.30;99.90;;;;;;5072848;28;20201;-59
2022/10/14 00:22:02;;;;;;;11.73;9.73;;;15.30;99.90;;;;;;5073214;28;20567;-59
2022/10/14 00:24:29;;;;;;;12.43;10.03;;;15.30;99.90;;;;;;5073124;28;20204;-58
2022/10/14 00:26:56;;;;;;;12.53;10.10;;;15.40;99.90;;;;;;5072936;28;20228;-59
2022/10/14 00:29:23;;;;;;;12.13;9.97;;;15.30;99.90;;;;;;5072994;28;20236;-59
2022/10/14 00:31:52;;;;;;;14.10;10.07;;;15.40;99.90;;;;;;5072582;28;20575;-58
2022/10/14 00:34:19;;;;;;;11.93;9.43;;;15.30;99.90;;;;;;5073087;28;20296;-59
2022/10/14 00:36:46;;;;;;;11.63;9.73;;;15.20;99.90;;;;;;5072754;28;20229;-59
2022/10/14 00:39:13;;;;;;;18.10;10.47;;;15.10;99.90;;;;;;5072904;28;20201;-59
2022/10/14 00:41:41;;;;;;;12.50;9.40;;;15.10;99.90;;;;;;5072469;28;20270;-58
2022/10/14 00:44:46;;;;;;;14.63;9.63;;;15.00;99.90;;;;;;5072705;28;20211;-58
2022/10/14 00:47:14;;;;;;;12.63;9.40;;;14.80;99.90;;;;;;5072677;28;20598;-59
2022/10/14 00:49:45;;;;;;;12.33;9.53;;;14.60;99.90;;;;;;5072618;28;20489;-58
2022/10/14 00:52:15;;;;;;;15.37;9.73;;;14.40;99.90;;;;;;5072699;28;20208;-58
2022/10/14 00:54:44;;;;;;;13.40;10.10;;;14.40;99.90;;;;;;5072774;28;20205;-58
2022/10/14 00:57:12;;;;;;;12.20;9.80;;;14.40;99.90;;;;;;5072396;28;20286;-59
2022/10/14 00:59:39;;;;;;;14.37;10.07;;;14.40;99.90;;;;;;5072395;28;20209;-59
2022/10/14 01:02:06;;;;;;;11.57;9.70;;;14.40;99.90;;;;;;5072676;28;20205;-59
2022/10/14 01:04:37;;;;;;;15.00;9.77;;;14.40;99.90;;;;;;5072853;28;20232;-59
2022/10/14 01:07:11;;;;;;;10.67;9.57;;;14.30;99.90;;;;;;5072526;28;20644;-59
2022/10/14 01:09:43;;;;;;;13.90;10.70;;;14.40;99.90;;;;;;5072252;28;20181;-59
2022/10/14 01:12:19;;;;;;;15.27;10.23;;;14.50;99.90;;;;;;5073019;28;20211;-57
2022/10/14 01:14:58;;;;;;;12.60;10.37;;;14.70;99.90;;;;;;5072706;28;20196;-57
2022/10/14 01:17:35;;;;;;;12.20;10.57;;;14.70;99.90;;;;;;5072890;28;20236;-57
2022/10/14 01:20:27;;;;;;;13.37;9.80;;;14.80;99.90;;;;;;5072724;28;20251;-57
2022/10/14 01:23:11;;;;;;;12.67;10.30;;;14.90;99.90;;;;;;5072945;28;20205;-57
2022/10/14 01:25:52;;;;;;;14.10;10.60;;;14.90;99.90;;;;;;5072889;28;20208;-57
2022/10/14 01:28:26;;;;;;;17.07;10.03;;;15.00;99.90;;;;;;5072655;28;20221;-57
2022/10/14 01:30:58;;;;;;;11.87;10.17;;;15.00;99.90;;;;;;5072144;28;20201;-57
2022/10/14 01:33:28;;;;;;;13.43;9.97;;;15.00;99.90;;;;;;5073083;28;20212;-57
2022/10/14 01:36:04;;;;;;;12.93;10.30;;;15.10;99.90;;;;;;5073033;28;20224;-57
2022/10/14 01:38:34;;;;;;;12.13;10.53;;;15.10;99.90;;;;;;5060101;22;20606;-62
2022/10/14 01:41:06;;;;;;;12.77;10.23;;;15.00;99.90;;;;;;5030683;28;20198;-62
2022/10/14 01:43:34;;;;;;;13.97;10.63;;;15.10;99.90;;;;;;5031585;28;20213;-62
2022/10/14 01:46:05;;;;;;;13.17;10.63;;;15.10;99.90;;;;;;5031305;28;20202;-62
2022/10/14 01:48:35;;;;;;;11.33;9.93;;;15.00;99.90;;;;;;5031402;28;20222;-63
2022/10/14 01:51:06;;;;;;;12.53;9.73;;;14.90;99.90;;;;;;5030659;28;20601;-63
2022/10/14 01:53:37;;;;;;;14.63;10.17;;;14.80;99.90;;;;;;5031528;28;20211;-63
2022/10/14 01:56:05;;;;;;;11.93;10.13;;;14.80;99.90;;;;;;5031348;28;20229;-63
2022/10/14 01:58:36;;;;;;;15.37;10.73;;;14.80;99.90;;;;;;5031354;28;20601;-63
2022/10/14 02:01:05;;;;;;;10.50;9.30;;;14.90;99.90;;;;;;5030650;28;20571;-63
2022/10/14 02:03:40;;;;;;;16.03;9.83;;;14.90;99.90;;;;;;5031112;28;20206;-63
2022/10/14 02:06:11;;;;;;;14.63;9.27;;;14.90;99.90;;;;;;5031253;28;20678;-63
2022/10/14 02:08:52;;;;;;;10.33;9.20;;;14.90;99.90;;;;;;5031009;28;20226;-63
2022/10/14 02:11:21;;;;;;;10.10;8.53;;;15.00;99.90;;;;;;5034554;28;20237;-63
2022/10/14 02:14:03;;;;;;;10.10;9.00;;;15.10;99.90;;;;;;5034729;28;20210;-63
2022/10/14 02:16:37;;;;;;;10.80;8.97;;;15.20;99.90;;;;;;5034798;28;20226;-62
2022/10/14 02:19:15;;;;;;;11.53;9.00;;;15.20;99.90;;;;;;5034763;28;20713;-63
2022/10/14 02:21:46;;;;;;;11.50;9.00;;;15.20;99.90;;;;;;5034106;28;20206;-62
2022/10/14 02:24:19;;;;;;;11.60;8.80;;;15.20;99.90;;;;;;5034499;28;20285;-63
2022/10/14 02:26:48;;;;;;;12.40;8.77;;;15.30;99.90;;;;;;5034750;28;20243;-62
2022/10/14 02:29:15;;;;;;;9.53;8.37;;;15.40;99.90;;;;;;5034678;28;20201;-64
2022/10/14 02:31:45;;;;;;;12.23;8.00;;;15.40;99.90;;;;;;5033729;28;20735;-63
2022/10/14 02:34:17;;;;;;;10.47;7.57;;;15.50;99.90;;;;;;5034766;28;20202;-63
2022/10/14 02:36:45;;;;;;;9.70;7.20;;;15.50;99.90;;;;;;5034347;28;20222;-63
2022/10/14 02:39:15;;;;;;;10.83;7.07;;;15.60;99.90;;;;;;5034197;28;20218;-63
2022/10/14 02:41:42;;;;;;;9.83;6.90;;;15.60;99.90;;;;;;5033806;28;20627;-63
2022/10/14 02:44:08;;;;;;;8.90;7.10;;;15.70;99.90;;;;;;5034344;28;20217;-62
2022/10/14 02:46:36;;;;;;;11.73;7.00;;;15.70;99.90;;;;;;5034221;28;20209;-63
2022/10/14 02:49:04;;;;;;;12.20;7.20;;;15.70;99.90;;;;;;5033990;28;20234;-63
2022/10/14 02:51:31;;;;;;;8.93;6.77;;;15.70;99.90;;;;;;5033683;28;20209;-63
2022/10/14 02:54:00;;;;;;;8.37;6.83;;;15.70;99.90;;;;;;5034266;28;20214;-62
2022/10/14 02:56:27;;;;;;;9.03;6.37;;;15.80;99.90;;;;;;5034204;28;20228;-63
2022/10/14 02:58:53;;;;;;;8.50;6.73;;;15.80;99.90;;;;;;5033996;28;20230;-64
2022/10/14 03:01:20;;;;;;;9.97;6.67;;;15.80;99.90;;;;;;5033353;28;20210;-64
2022/10/14 03:03:47;;;;;;;7.63;6.70;;;15.70;99.90;;;;;;5033843;28;20244;-63
2022/10/14 03:06:15;;;;;;;8.80;7.07;;;15.70;99.90;;;;;;5034130;28;20202;-64
2022/10/14 03:08:42;;;;;;;13.97;7.60;;;15.70;99.90;;;;;;5033862;28;20230;-63
2022/10/14 03:11:08;;;;;;;14.57;7.87;;;15.70;99.90;;;;;;5033166;28;20210;-64
2022/10/14 03:13:35;;;;;;;10.13;7.27;;;15.70;99.90;;;;;;5033608;28;20232;-64
2022/10/14 03:16:02;;;;;;;15.20;7.97;;;15.70;99.90;;;;;;5033532;28;20217;-63
2022/10/14 03:18:29;;;;;;;9.30;7.30;;;15.70;99.90;;;;;;5033488;28;20717;-64
2022/10/14 03:20:56;;;;;;;8.67;6.50;;;15.70;99.90;;;;;;5031976;28;20209;-64
2022/10/14 03:23:24;;;;;;;8.13;6.47;;;15.70;99.90;;;;;;5033615;28;20210;-64
2022/10/14 03:25:50;;;;;;;8.30;6.57;;;15.70;99.90;;;;;;5033288;28;20678;-64
2022/10/14 03:28:17;;;;;;;10.23;7.10;;;15.60;99.90;;;;;;5033264;28;20222;-63
2022/10/14 03:30:44;;;;;;;12.57;6.97;;;15.60;99.90;;;;;;5032676;28;20206;-64
2022/10/14 03:33:11;;;;;;;7.83;6.00;;;15.60;99.90;;;;;;5033293;28;20610;-64
2022/10/14 03:35:37;;;;;;;9.90;7.00;;;15.50;99.90;;;;;;5033447;28;20202;-63
2022/10/14 03:38:05;;;;;;;8.23;6.20;;;15.50;99.90;;;;;;5033202;28;20237;-64
2022/10/14 03:40:34;;;;;;;7.37;5.93;;;15.50;99.90;;;;;;5032739;28;20210;-63
2022/10/14 03:43:01;;;;;;;7.60;5.20;;;15.40;99.90;;;;;;5033677;28;20235;-64
2022/10/14 03:45:28;;;;;;;8.90;5.50;;;15.40;99.90;;;;;;5033324;28;20744;-63
2022/10/14 03:47:55;;;;;;;7.30;5.03;;;15.30;99.90;;;;;;5033503;28;20230;-64
2022/10/14 03:50:21;;;;;;;6.10;4.73;;;15.20;99.90;;;;;;5033218;28;20210;-64
2022/10/14 03:52:48;;;;;;;5.50;4.00;;;15.20;99.90;;;;;;5033306;28;20207;-64
2022/10/14 03:55:15;;;;;;;5.93;4.47;;;15.10;99.90;;;;;;5033093;28;20209;-64
2022/10/14 03:57:44;;;;;;;5.40;4.70;;;15.10;99.90;;;;;;5032783;28;20230;-64
2022/10/14 04:00:12;;;;;;;7.33;5.13;;;15.10;99.90;;;;;;5032260;28;20214;-64
2022/10/14 04:02:39;;;;;;;7.70;5.23;;;15.10;99.90;;;;;;5033017;28;20298;-64
2022/10/14 04:05:06;;;;;;;10.40;6.40;;;15.00;99.90;;;;;;5032656;28;20666;-64
2022/10/14 04:07:33;;;;;;;8.73;6.80;;;15.00;99.90;;;;;;5032590;28;20737;-64
2022/10/14 04:10:00;;;;;;;5.20;4.70;;;15.00;99.90;;;;;;5032183;28;20213;-64
2022/10/14 04:12:26;;;;;;;7.70;4.67;;;15.00;99.90;;;;;;5032399;28;20674;-64
2022/10/14 04:14:55;;;;;;;9.57;5.33;;;15.00;99.90;;;;;;5032752;28;20210;-64
2022/10/14 04:17:22;;;;;;;6.63;4.37;;;15.00;99.90;;;;;;5032456;28;20226;-63
2022/10/14 04:19:49;;;;;;;7.87;5.33;;;14.80;99.90;;;;;;5032374;28;20209;-64
2022/10/14 04:22:16;;;;;;;6.57;5.20;;;14.80;99.90;;;;;;5032437;28;20206;-64
2022/10/14 04:24:43;;;;;;;7.87;5.43;;;14.80;99.90;;;;;;5032897;28;20209;-64
2022/10/14 04:27:10;;;;;;;10.90;5.67;;;14.90;99.90;;;;;;5032074;28;20222;-64
2022/10/14 04:29:36;;;;;;;7.10;5.80;;;14.80;99.90;;;;;;5032531;28;20213;-64
2022/10/14 04:32:05;;;;;;;7.13;5.73;;;14.80;99.90;;;;;;5031293;28;20214;-64
2022/10/14 04:34:31;;;;;;;6.77;5.57;;;14.70;99.90;;;;;;5032409;28;20206;-64
2022/10/14 04:36:58;;;;;;;11.33;5.60;;;14.70;99.90;;;;;;5032017;28;20226;-64
2022/10/14 04:39:25;;;;;;;12.83;7.67;;;14.80;99.90;;;;;;5032357;28;20206;-64
2022/10/14 04:41:52;;;;;;;6.77;5.63;;;14.70;99.90;;;;;;5031703;28;20646;-64
2022/10/14 04:44:18;;;;;;;7.57;4.90;;;14.70;99.90;;;;;;5032369;28;20202;-64
2022/10/14 04:46:45;;;;;;;6.07;5.13;;;14.60;99.90;;;;;;5032199;28;20202;-63
2022/10/14 04:49:15;;;;;;;8.93;4.83;;;14.50;99.90;;;;;;5031957;28;20590;-64
2022/10/14 04:51:42;;;;;;;7.73;4.83;;;14.40;99.90;;;;;;5031500;28;20210;-64
2022/10/14 04:54:09;;;;;;;5.73;4.70;;;14.20;99.90;;;;;;5031937;28;20221;-64
2022/10/14 04:56:36;;;;;;;5.30;4.77;;;14.10;99.90;;;;;;5031843;28;20617;-62
2022/10/14 04:59:03;;;;;;;7.30;4.53;;;14.10;99.90;;;;;;5031849;28;20230;-63
2022/10/14 05:01:30;;;;;;;16.60;6.40;;;14.10;99.90;;;;;;5031702;28;20210;-63
2022/10/14 05:03:56;;;;;;;10.03;5.80;;;14.10;99.90;;;;;;5032200;28;20210;-63
2022/10/14 05:06:24;;;;;;;9.30;6.07;;;14.00;99.90;;;;;;5031703;28;20203;-64
2022/10/14 05:08:51;;;;;;;7.00;5.30;;;14.00;99.90;;;;;;5031462;28;20225;-64
2022/10/14 05:11:18;;;;;;;8.47;5.63;;;13.90;99.90;;;;;;5031046;28;20710;-63
2022/10/14 05:13:45;;;;;;;8.77;5.97;;;13.90;99.90;;;;;;5031232;28;20666;-64
2022/10/14 05:16:11;;;;;;;8.03;6.07;;;14.00;99.90;;;;;;5031788;28;20213;-64
2022/10/14 05:18:38;;;;;;;9.90;5.33;;;14.10;99.90;;;;;;5031616;28;20257;-63
2022/10/14 05:21:05;;;;;;;6.20;5.30;;;14.10;99.90;;;;;;5031054;28;20206;-64
2022/10/14 05:23:33;;;;;;;8.37;5.33;;;14.10;99.90;;;;;;5031789;28;20210;-64
2022/10/14 05:26:00;;;;;;;7.73;5.53;;;14.20;99.90;;;;;;5032132;28;20210;-64
2022/10/14 05:28:26;;;;;;;7.50;5.00;;;14.30;99.90;;;;;;5031908;28;20230;-64
2022/10/14 05:30:54;;;;;;;9.53;4.77;;;14.40;99.90;;;;;;5031191;28;20704;-64
2022/10/14 05:33:21;;;;;;;11.03;5.30;;;14.50;99.90;;;;;;5031987;28;20210;-64
2022/10/14 05:35:47;;;;;;;6.03;4.57;;;14.50;99.90;;;;;;5031415;28;20210;-63
2022/10/14 05:38:14;;;;;;;6.27;5.30;;;14.40;99.90;;;;;;5031374;28;20245;-63
2022/10/14 05:40:42;;;;;;;6.57;5.10;;;14.30;99.90;;;;;;5031003;28;20217;-63
2022/10/14 05:43:09;;;;;;;6.43;5.30;;;14.10;99.90;;;;;;5031465;28;20687;-63
2022/10/14 05:45:36;;;;;;;6.70;5.33;;;14.10;99.90;;;;;;5034400;28;20582;-65
2022/10/14 05:48:02;;;;;;;10.07;5.60;;;14.10;99.90;;;;;;5035194;28;20230;-66
2022/10/14 05:50:29;;;;;;;7.20;5.87;;;14.10;99.90;;;;;;5034752;28;20210;-66
2022/10/14 05:52:56;;;;;;;7.57;5.70;;;14.20;99.90;;;;;;5035447;28;20209;-66
2022/10/14 05:55:22;;;;;;;9.33;6.00;;;14.20;99.90;;;;;;5035276;28;20206;-67
2022/10/14 05:57:54;;;;;;;9.37;5.73;;;14.30;99.90;;;;;;5035031;28;20234;-65
2022/10/14 06:00:21;;;;;;;7.53;5.63;;;14.40;99.90;;;;;;5034620;28;20210;-66
2022/10/14 06:02:48;;;;;;;7.37;5.07;;;14.30;99.90;;;;;;5035210;28;20213;-66
2022/10/14 06:05:15;;;;;;;5.57;5.00;;;14.40;99.90;;;;;;5035151;28;20206;-66
2022/10/14 06:07:42;;;;;;;8.97;4.80;;;14.30;99.90;;;;;;5035176;28;20229;-66
2022/10/14 06:10:10;;;;;;;6.87;5.80;;;14.20;99.90;;;;;;5034238;28;20585;-65
2022/10/14 06:12:37;;;;;;;6.13;5.07;;;14.30;99.90;;;;;;5035005;28;20682;-67
2022/10/14 06:15:06;;;;;;;6.97;5.40;;;14.30;99.90;;;;;;5034905;28;20210;-66
2022/10/14 06:17:33;;;;;;;7.00;5.27;;;14.40;99.90;;;;;;5034634;28;20234;-64
2022/10/14 06:20:00;;;;;;;5.97;4.70;;;14.50;99.90;;;;;;5034891;28;20206;-64
2022/10/14 06:22:28;;;;;;;7.97;5.60;;;14.50;99.90;;;;;;5034683;28;20213;-67
2022/10/14 06:24:54;;;;;;;7.23;5.57;;;14.60;99.90;;;;;;5034576;28;20206;-65
2022/10/14 06:27:21;;;;;;;9.43;5.40;;;14.70;99.90;;;;;;5034361;28;20218;-65
2022/10/14 06:29:48;;;;;;;8.93;5.47;;;14.70;99.90;;;;;;5034696;28;20214;-64
2022/10/14 06:32:16;;;;;;;10.93;5.83;;;14.80;99.90;;;;;;5034208;28;20217;-65
2022/10/14 06:34:42;;;;;;;7.20;5.67;;;14.80;99.90;;;;;;5034548;28;20682;-65
2022/10/14 06:37:09;;;;;;;6.37;5.53;;;14.90;99.90;;;;;;5034254;28;20253;-67
2022/10/14 06:39:36;;;;;;;8.60;5.73;;;15.00;99.90;;;;;;5034519;28;20206;-65
2022/10/14 06:42:03;;;;;;;9.00;6.20;;;15.00;99.90;;;;;;5034220;28;20207;-65
2022/10/14 06:44:30;;;;;;;8.60;5.73;;;15.00;99.90;;;;;;5034954;28;20285;-64
2022/10/14 06:46:57;;;;;;;9.00;5.70;;;15.00;99.90;;;;;;5034631;28;20213;-65
2022/10/14 06:49:25;;;;;;;9.57;6.10;;;15.00;99.90;;;;;;5035856;28;20222;-66
2022/10/14 06:51:51;;;;;;;10.97;6.40;;;15.10;99.90;;;;;;5034414;28;20206;-66
2022/10/14 06:54:18;;;;;;;10.27;6.37;;;15.10;99.90;;;;;;5034752;28;20237;-64
2022/10/14 06:56:45;;;;;;;7.10;6.40;;;15.10;99.90;;;;;;5034043;28;20233;-66
2022/10/14 06:59:12;;;;;;;8.67;6.17;;;15.20;99.90;;;;;;5033815;28;20230;-65
2022/10/14 07:01:38;;;;;;;9.77;7.10;;;15.20;99.90;;;;;;5033577;28;20206;-65
2022/10/14 07:04:05;;;;;;;8.97;6.23;;;15.30;99.90;;;;;;5034206;28;20276;-65
2022/10/14 07:06:33;;;;;;;11.07;6.37;;;15.20;99.90;;;;;;5034060;28;20214;-64
2022/10/14 07:09:00;;;;;;;8.67;6.57;;;15.30;99.90;;;;;;5033526;28;20230;-64
2022/10/14 07:11:27;;;;;;;8.87;6.63;;;15.30;99.90;;;;;;5033254;28;20202;-64
2022/10/14 07:13:55;;;;;;;7.23;6.23;;;15.40;99.90;;;;;;5033703;28;20631;-65
2022/10/14 07:16:22;;;;;;;9.50;6.93;;;15.50;99.90;;;;;;5033973;28;20202;-64
2022/10/14 07:18:49;;;;;;;9.63;6.43;;;15.50;99.90;;;;;;5033867;28;20259;-65
2022/10/14 07:21:16;;;;;;;8.10;6.20;;;15.60;99.90;;;;;;5033275;28;20217;-65
2022/10/14 07:23:44;;;;;;;9.37;6.40;;;15.80;99.90;;;;;;5033762;28;20213;-64
2022/10/14 07:26:10;;;;;;;7.00;6.27;;;16.00;99.90;;;;;;5033776;28;20214;-65
2022/10/14 07:28:37;;;;;;;9.17;5.80;;;16.00;99.90;;;;;;5034325;28;20226;-63
2022/10/14 07:31:06;;;;;;;8.13;6.27;;;15.90;99.90;;;;;;5034492;28;20207;-65
2022/10/14 07:33:35;;;;;;;8.30;6.20;;;15.90;99.90;;;;;;5034927;28;20208;-66
2022/10/14 07:36:03;;;;;;;8.07;6.10;;;16.00;99.90;;;;;;5034566;28;20208;-65
2022/10/14 07:38:30;;;;;;;9.57;6.30;;;16.00;99.90;;;;;;5062166;22;20229;-61
2022/10/14 07:41:01;;;;;;;7.90;6.23;;;16.10;99.90;;;;;;5047337;28;20202;-56
2022/10/14 07:43:28;;;;;;;9.23;6.03;;;16.20;99.90;;;;;;5054572;28;20205;-57
2022/10/14 07:45:59;;;;;;;10.40;6.37;;;16.20;99.90;;;;;;5054836;28;20240;-57
2022/10/14 07:48:29;;;;;;;13.40;6.73;;;16.10;99.90;;;;;;5054289;28;20272;-57
2022/10/14 07:50:56;;;;;;;15.90;5.93;;;16.10;99.90;;;;;;5053819;28;20221;-56
2022/10/14 07:53:24;;;;;;;11.03;5.90;;;16.00;99.90;;;;;;5053804;28;20588;-56
2022/10/14 07:55:52;;;;;;;6.57;5.37;;;16.00;99.90;;;;;;5054443;28;20574;-57
2022/10/14 07:58:26;;;;;;;9.03;5.90;;;16.00;99.90;;;;;;5054279;28;20586;-57
2022/10/14 08:00:53;;;;;;;7.20;5.68;;;16.20;99.90;;;;;;5053925;28;20205;-57
2022/10/14 08:03:22;;;;;;;9.03;5.23;;;16.50;99.90;;;;;;5054552;28;20601;-57
2022/10/14 08:05:50;;;;;;;7.85;5.25;;;16.70;99.90;;;;;;5054218;28;20241;-58
2022/10/14 08:08:18;;;;;;;7.97;5.30;;;16.90;99.90;;;;;;5053427;28;20225;-57
2022/10/14 08:10:45;;;;;;;5.43;4.88;;;17.00;99.90;;;;;;5053649;28;20212;-57
2022/10/14 08:13:12;;;;;;;9.18;5.90;;;17.30;99.90;;;;;;5053563;28;20205;-57
2022/10/14 08:15:42;;;;;;;9.40;5.38;;;17.50;99.90;;;;;;5053660;28;20691;-57
2022/10/14 08:18:10;;;;;;;7.40;4.90;;;17.90;99.90;;;;;;5053362;28;20228;-57
2022/10/14 08:20:38;;;;;;;6.20;4.22;;;18.10;99.90;;;;;;5053576;28;20217;-56
2022/10/14 08:23:04;;;;;;;8.00;4.80;;;18.40;99.90;;;;;;5054167;28;20212;-57
2022/10/14 08:25:31;;;;;;;5.57;4.60;;;18.60;99.90;;;;;;5053812;28;20229;-58
2022/10/14 08:27:58;;;;;;;9.52;4.82;;;18.90;99.90;;;;;;5053166;28;20279;-57
2022/10/14 08:30:25;;;;;;;8.82;5.10;;;19.10;99.90;;;;;;5053182;28;20236;-58
2022/10/14 08:32:54;;;;;;;6.70;4.97;;;19.30;99.90;;;;;;5053140;28;20251;-57
2022/10/14 08:35:21;;;;;;;6.35;4.78;;;19.20;99.90;;;;;;5053389;28;20260;-57
2022/10/14 08:37:56;;;;;;;7.50;4.45;;;19.00;99.90;;;;;;5053186;28;20783;-57
2022/10/14 08:40:24;;;;;;;6.40;4.13;;;18.90;99.90;;;;;;5053693;28;20272;-58
2022/10/14 08:42:58;;;;;;;21.15;19.00;;;18.80;99.90;;;;;;5053837;28;20217;-57
2022/10/14 08:45:30;;;;;;;8.20;3.88;;;18.80;99.90;;;;;;5052857;28;20229;-57
2022/10/14 08:48:00;;;;;;;9.82;4.03;;;18.90;99.90;;;;;;5053065;28;20320;-56
2022/10/14 08:50:31;;;;;;;6.07;3.92;;;18.90;99.90;;;;;;5053946;28;20859;-65
2022/10/14 08:53:04;;;;;;;4.72;3.28;;;19.00;99.90;;;;;;5054982;28;20237;-59
2022/10/14 08:55:36;;;;;;;5.20;3.50;;;19.10;99.90;;;;;;5053581;28;20212;-60
2022/10/14 08:58:11;;;;;;;4.93;3.40;;;19.30;99.90;;;;;;5054213;28;20320;-63
2022/10/14 09:00:41;;;;;;;8.90;3.83;;;19.30;99.90;;;;;;5054690;28;20209;-57
2022/10/14 09:03:16;;;;;;;10.05;4.13;;;19.30;99.90;;;;;;5053256;28;20230;-56
2022/10/14 09:05:44;;;;;;;8.20;3.47;;;19.30;99.90;;;;;;5053159;28;20267;-57
2022/10/14 09:08:15;;;;;;;5.72;3.28;;;19.30;99.90;;;;;;5053057;28;20249;-57
2022/10/14 09:10:43;;;;;;;7.75;3.50;;;19.20;99.90;;;;;;5052724;28;20205;-56
2022/10/14 09:13:17;;;;;;;6.32;3.42;;;19.10;99.90;;;;;;5053080;28;20240;-57
2022/10/14 09:15:48;;;;;;;5.35;3.42;;;19.10;99.90;;;;;;5052637;28;20216;-57
2022/10/14 09:18:26;;;;;;;8.18;4.10;;;19.00;99.90;;;;;;5053349;28;20240;-57
2022/10/14 09:20:54;;;;;;;7.03;3.42;;;18.90;99.90;;;;;;5056277;28;20562;-57
2022/10/14 09:23:22;;;;;;;5.57;3.55;;;18.70;99.90;;;;;;5056922;28;20232;-58
2022/10/14 09:25:56;;;;;;;5.63;3.58;;;18.40;99.90;;;;;;5056736;28;20209;-56
2022/10/14 09:28:31;;;;;;;7.03;3.40;;;18.30;99.90;;;;;;5056667;28;20735;-56
2022/10/14 09:30:58;;;;;;;6.78;3.97;;;18.20;99.90;;;;;;5056435;28;20219;-58
2022/10/14 09:33:28;;;;;;;6.95;4.18;;;18.20;99.90;;;;;;5056346;28;20205;-56
2022/10/14 09:35:56;;;;;;;6.10;3.88;;;18.30;99.90;;;;;;5056966;28;20212;-58
2022/10/14 09:38:24;;;;;;;9.00;4.07;;;18.40;99.90;;;;;;5056581;28;20233;-56
2022/10/14 09:40:54;;;;;;;5.38;3.42;;;18.50;99.90;;;;;;5056025;28;20201;-59
2022/10/14 09:43:23;;;;;;;8.98;4.10;;;18.60;99.90;;;;;;5057035;28;20206;-58
2022/10/14 09:45:55;;;;;;;5.57;3.80;;;18.60;99.90;;;;;;5056623;28;20205;-58
2022/10/14 09:48:32;;;;;;;5.35;3.70;;;18.80;99.90;;;;;;5056950;28;20229;-59
2022/10/14 09:51:00;;;;;;;5.22;3.78;;;19.00;99.90;;;;;;5055911;28;20209;-57
2022/10/14 09:53:30;;;;;;;10.57;4.65;;;19.10;99.90;;;;;;5056147;28;20696;-58
2022/10/14 09:55:59;;;;;;;7.78;4.13;;;19.30;99.90;;;;;;5056818;28;20208;-58
2022/10/14 09:58:38;;;;;;;9.73;3.95;;;19.40;99.90;;;;;;5056525;28;20221;-58
2022/10/14 10:01:11;;;;;;;5.38;3.70;;;19.60;99.90;;;;;;5056578;28;20213;-58
2022/10/14 10:03:39;;;;;;;7.20;4.07;;;19.80;99.90;;;;;;5056654;28;20209;-57
2022/10/14 10:06:08;;;;;;;9.25;4.07;;;20.10;99.90;;;;;;5057163;28;20642;-57
2022/10/14 10:08:37;;;;;;;4.68;3.75;;;20.20;99.90;;;;;;5056876;28;20226;-57
2022/10/14 10:11:07;;;;;;;6.28;3.15;;;20.50;99.90;;;;;;5056886;28;20198;-58
2022/10/14 10:13:42;;;;;;;4.95;3.60;;;20.60;99.90;;;;;;5057648;28;20680;-56
2022/10/14 10:16:20;;;;;;;6.65;3.10;;;20.60;99.90;;;;;;5056385;28;20217;-56
2022/10/14 10:18:48;;;;;;;4.78;3.40;;;20.60;99.90;;;;;;5055820;28;20462;-60
2022/10/14 10:21:23;;;;;;;8.90;3.72;;;20.70;99.90;;;;;;5044621;28;20206;-60
2022/10/14 10:23:53;;;;;;;3.53;2.95;;;20.70;99.90;;;;;;5039702;28;20411;-62
2022/10/14 10:26:24;;;;;;;6.15;3.42;;;20.90;99.90;;;;;;5054355;28;20251;-61
2022/10/14 10:28:52;;;;;;;7.15;3.22;;;21.10;99.90;;;;;;5054795;28;20225;-60
2022/10/14 10:31:33;;;;;;;5.47;3.38;;;21.20;99.90;;;;;;5052961;28;20214;-59
2022/10/14 10:34:11;;;;;;;5.07;2.70;;;21.30;99.90;;;;;;5054470;28;20300;-61
2022/10/14 10:36:42;;;;;;;6.78;2.60;;;21.40;99.90;;;;;;5054331;28;20518;-62
2022/10/14 10:39:23;;;;;;;2.92;2.35;;;21.50;99.90;;;;;;5054124;28;20339;-60
2022/10/14 10:41:59;;;;;;;4.35;2.08;;;21.70;99.90;;;;;;5053941;28;20216;-62
2022/10/14 10:44:44;;;;;;;4.18;2.70;;;21.80;99.90;;;;;;5054609;28;20220;-62
2022/10/14 10:47:21;;;;;;;5.47;2.83;;;22.00;99.90;;;;;;5054050;28;20198;-60
2022/10/14 10:50:09;;;;;;;7.10;2.70;;;22.20;99.90;;;;;;5054441;28;20212;-61
2022/10/14 10:52:48;;;;;;;3.05;2.40;;;22.30;99.90;;;;;;5053749;28;20212;-60
2022/10/14 10:55:25;;;;;;;4.82;3.38;;;22.30;99.90;;;;;;5055095;28;20213;-61
2022/10/14 10:58:02;;;;;;;4.10;3.00;;;22.40;99.90;;;;;;5054631;28;20225;-62
2022/10/14 11:00:36;;;;;;;4.60;2.83;;;22.50;99.90;;;;;;5053227;28;20248;-60
2022/10/14 11:03:20;;;;;;;5.32;2.47;;;22.50;99.90;;;;;;5052427;28;20627;-57
2022/10/14 11:05:57;;;;;;;8.77;3.40;;;22.50;99.90;;;;;;5053987;28;20590;-58
2022/10/14 11:14:27;;;;;;;5.70;2.50;;;22.70;99.90;;;;;;5053444;28;20220;-58
2022/10/14 11:17:02;;;;;;;6.03;3.40;;;22.80;99.90;;;;;;5053051;28;20209;-57
2022/10/14 11:19:36;;;;;;;4.68;2.67;;;22.90;99.90;;;;;;5053960;28;20237;-57
2022/10/14 11:22:16;;;;;;;3.25;2.40;;;23.00;99.90;;;;;;5052818;28;20241;-57
2022/10/14 11:24:57;;;;;;;4.07;2.60;;;23.00;99.90;;;;;;5052942;28;20610;-57
2022/10/14 11:27:31;;;;;;;6.90;2.80;;;22.90;99.90;;;;;;5052402;28;20201;-57
2022/10/14 11:30:13;;;;;;;6.70;2.47;;;22.80;99.90;;;;;;5052811;28;20208;-60
2022/10/14 11:32:51;;;;;;;3.97;2.80;;;22.80;99.90;;;;;;5052424;28;20285;-57
2022/10/14 11:35:25;;;;;;;7.30;2.75;;;22.80;99.90;;;;;;5053184;28;20209;-60
2022/10/14 11:38:10;;;;;;;4.50;2.83;;;22.80;99.90;;;;;;5053283;28;20635;-62
2022/10/14 11:40:42;;;;;;;6.78;2.60;;;22.80;99.90;;;;;;5051431;28;20229;-59
2022/10/14 11:43:21;;;;;;;3.78;2.58;;;22.90;99.90;;;;;;5051639;28;20266;-57
2022/10/14 11:45:57;;;;;;;3.45;2.58;;;22.70;99.90;;;;;;5052939;28;20206;-58
2022/10/14 11:48:30;;;;;;;5.50;2.70;;;22.60;99.90;;;;;;5029383;28;20241;-58
2022/10/14 11:51:05;;;;;;;6.53;3.05;;;22.50;99.90;;;;;;5033465;28;20202;-57
2022/10/14 11:53:53;;;;;;;4.25;2.92;;;22.30;99.90;;;;;;5034087;28;20210;-57
2022/10/14 11:56:29;;;;;;;6.63;3.38;;;22.10;99.90;;;;;;5033927;28;20206;-58
2022/10/14 11:59:01;;;;;;;4.90;2.90;;;21.90;99.90;;;;;;5033961;28;20233;-57
2022/10/14 12:01:31;;;;;;;4.78;3.05;;;21.80;99.90;;;;;;5033595;28;20647;-58
2022/10/14 12:04:04;;;;;;;5.97;3.60;;;21.80;99.90;;;;;;5035094;28;20206;-56
2022/10/14 12:06:36;;;;;;;6.40;3.85;;;21.60;99.90;;;;;;5033506;28;20653;-57
2022/10/14 12:09:12;;;;;;;4.72;3.30;;;21.40;99.90;;;;;;5033867;28;20222;-57
2022/10/14 12:11:43;;;;;;;7.88;3.53;;;21.30;99.90;;;;;;5033069;28;20232;-58
2022/10/14 12:14:14;;;;;;;10.38;5.03;;;21.30;99.90;;;;;;5033809;28;20210;-58
2022/10/14 12:16:43;;;;;;;4.10;3.60;;;21.40;99.90;;;;;;5033694;28;20585;-57
2022/10/14 12:19:12;;;;;;;6.10;3.55;;;21.30;99.90;;;;;;5033338;28;20237;-57
2022/10/14 12:21:47;;;;;;;8.30;3.70;;;21.30;99.90;;;;;;5033289;28;20214;-58
2022/10/14 12:24:18;;;;;;;8.57;4.00;;;21.40;99.90;;;;;;5033711;28;20216;-57
2022/10/14 12:26:53;;;;;;;9.15;3.60;;;21.60;99.90;;;;;;5033718;28;20210;-59
2022/10/14 12:29:23;;;;;;;5.88;4.03;;;21.80;99.90;;;;;;5033568;28;20709;-58
2022/10/14 12:32:06;;;;;;;10.20;4.00;;;21.90;99.90;;;;;;5033207;28;20213;-57
2022/10/14 12:34:35;;;;;;;5.15;3.83;;;22.10;99.90;;;;;;5034173;28;20233;-57
2022/10/14 12:37:50;;;;;;;5.55;3.55;;;22.30;99.90;;;;;;5033943;28;20206;-58
2022/10/14 12:40:29;;;;;;;7.03;4.10;;;22.40;99.90;;;;;;5033984;28;20647;-57
2022/10/14 12:43:15;;;;;;;5.70;3.80;;;22.40;99.90;;;;;;5032971;28;20210;-59
2022/10/14 12:45:54;;;;;;;7.00;4.03;;;22.50;99.90;;;;;;5033152;28;20206;-59
2022/10/14 12:48:23;;;;;;;8.63;3.75;;;22.50;99.90;;;;;;5033225;28;20226;-57
2022/10/14 12:50:56;;;;;;;7.07;3.10;;;22.50;99.90;;;;;;5033387;28;20205;-58
2022/10/14 12:53:26;;;;;;;6.30;3.20;;;22.60;99.90;;;;;;5033325;28;20206;-57
2022/10/14 12:55:56;;;;;;;9.00;3.20;;;22.70;99.90;;;;;;5033226;28;20302;-58
2022/10/14 12:58:29;;;;;;;3.60;2.67;;;22.80;99.90;;;;;;5033456;28;20232;-58
2022/10/14 13:01:00;;;;;;;3.33;2.30;;;22.80;99.90;;;;;;5032726;28;20319;-58
2022/10/14 13:03:31;;;;;;;3.53;2.13;;;22.60;99.90;;;;;;5033623;28;20213;-58
2022/10/14 13:06:31;;;;;;;4.30;2.08;;;22.50;99.90;;;;;;5033299;28;20220;-58